Time;durP1;ratioP1;P1;durP2;ratioP2;P2;SDS_P1;SDS_P2;PMS_P1;PMS_P2;Temp;Humidity;BMP_temperature;BMP_pressure;BME280_temperature;BME280_humidity;BME280_pressure;Samples;Min_cycle;Max_cycle;Signal;HPM_P1;HPM_P2
2021/01/04 00:00:37;;;;;;;44.57;29.97;;;3.30;99.90;;;;;;4847097;29;20493;-86
2021/01/04 00:03:42;;;;;;;42.60;30.90;;;3.30;99.90;;;;;;4844957;29;20478;-85
2021/01/04 00:07:04;;;;;;;36.40;27.60;;;3.30;99.90;;;;;;4829572;29;20449;-88
2021/01/04 00:10:42;;;;;;;37.33;28.23;;;3.20;99.90;;;;;;4923712;28;20457;-84
2021/01/04 00:14:13;;;;;;;;;;;;;;;;;;;;;
2021/01/04 00:17:12;;;;;;;39.70;27.77;;;3.30;99.90;;;;;;4956278;28;20463;-86
2021/01/04 00:20:23;;;;;;;41.47;30.02;;;3.30;99.90;;;;;;4965538;28;20431;-86
2021/01/04 00:23:09;;;;;;;35.33;26.10;;;3.30;99.90;;;;;;4965701;28;20255;-86
2021/01/04 00:25:56;;;;;;;37.63;27.90;;;3.40;99.90;;;;;;4976014;28;20485;-85
2021/01/04 00:28:35;;;;;;;39.30;28.10;;;3.40;99.90;;;;;;4976333;28;20466;-87
2021/01/04 00:31:06;;;;;;;40.53;29.50;;;3.40;99.90;;;;;;4972719;28;20518;-87
2021/01/04 00:33:41;;;;;;;35.80;27.80;;;3.50;99.90;;;;;;4957027;28;20479;-87
2021/01/04 00:36:15;;;;;;;37.73;28.53;;;3.50;99.90;;;;;;4956790;28;20460;-87
2021/01/04 00:39:19;;;;;;;41.03;29.90;;;3.50;99.90;;;;;;4956741;28;20491;-87
2021/01/04 00:41:58;;;;;;;33.73;25.83;;;3.50;99.90;;;;;;4956493;28;21001;-87
2021/01/04 00:44:35;;;;;;;35.10;29.17;;;3.50;99.90;;;;;;4956446;28;20490;-86
2021/01/04 00:47:22;;;;;;;37.03;26.70;;;3.30;99.90;;;;;;4951740;28;20459;-85
2021/01/04 00:50:22;;;;;;;40.93;28.90;;;3.30;99.90;;;;;;4956510;28;20443;-87
2021/01/04 00:52:56;;;;;;;43.07;28.17;;;3.30;99.90;;;;;;4950530;28;20527;-86
2021/01/04 00:55:39;;;;;;;38.70;27.03;;;3.40;99.90;;;;;;4956371;28;20432;-86
2021/01/04 00:58:40;;;;;;;39.57;29.47;;;3.40;99.90;;;;;;4956420;28;20464;-85
2021/01/04 01:01:14;;;;;;;38.33;29.43;;;3.40;99.90;;;;;;4956071;28;20495;-87
2021/01/04 01:04:03;;;;;;;43.43;30.23;;;3.40;99.90;;;;;;4956286;28;20476;-86
2021/01/04 01:06:40;;;;;;;40.77;27.87;;;3.30;99.90;;;;;;4955850;28;20449;-85
2021/01/04 01:09:09;;;;;;;40.57;30.43;;;3.30;99.90;;;;;;4956593;28;20464;-85
2021/01/04 01:11:54;;;;;;;42.90;31.97;;;3.40;99.90;;;;;;4956187;28;20488;-87
2021/01/04 01:14:25;;;;;;;38.07;28.40;;;3.40;99.90;;;;;;4956072;28;20457;-87
2021/01/04 01:17:13;;;;;;;41.10;29.57;;;3.30;99.90;;;;;;4956521;28;20463;-86
2021/01/04 01:19:46;;;;;;;43.20;30.33;;;3.30;99.90;;;;;;4956113;28;20495;-86
2021/01/04 01:22:19;;;;;;;45.97;33.27;;;3.40;99.90;;;;;;4955736;28;20491;-86
2021/01/04 01:24:46;;;;;;;49.03;31.17;;;3.40;99.90;;;;;;4955702;28;20504;-87
2021/01/04 01:27:33;;;;;;;47.43;33.87;;;3.30;99.90;;;;;;4956206;28;20448;-86
2021/01/04 01:30:17;;;;;;;45.70;33.60;;;3.30;99.90;;;;;;4956256;28;20433;-86
2021/01/04 01:33:16;;;;;;;49.30;32.67;;;3.30;99.90;;;;;;4955987;28;20622;-85
2021/01/04 01:36:02;;;;;;;43.23;31.07;;;3.30;99.90;;;;;;4955638;28;20448;-85
2021/01/04 01:39:00;;;;;;;44.90;32.67;;;3.20;99.90;;;;;;4955338;29;20983;-87
2021/01/04 01:41:59;;;;;;;46.70;32.13;;;3.20;99.90;;;;;;4956488;28;20463;-86
2021/01/04 01:44:32;;;;;;;42.00;29.90;;;3.20;99.90;;;;;;4959313;28;20511;-86
2021/01/04 01:47:06;;;;;;;42.13;29.70;;;3.30;99.90;;;;;;4955808;28;20460;-86
2021/01/04 01:49:54;;;;;;;46.53;32.83;;;3.30;99.90;;;;;;4955755;28;20432;-86
2021/01/04 01:52:30;;;;;;;45.20;31.83;;;3.30;99.90;;;;;;4955627;28;20490;-86
2021/01/04 01:55:20;;;;;;;46.60;32.70;;;3.30;99.90;;;;;;4936205;29;20941;-85
2021/01/04 01:58:27;;;;;;;43.20;30.10;;;3.30;99.90;;;;;;4936209;29;20441;-86
2021/01/04 02:01:02;;;;;;;39.33;29.90;;;3.30;99.90;;;;;;4936345;29;20927;-86
2021/01/04 02:03:35;;;;;;;44.00;30.33;;;3.30;99.90;;;;;;4936285;29;20528;-86
2021/01/04 02:06:23;;;;;;;43.30;30.67;;;3.30;99.90;;;;;;4953381;28;20483;-87
2021/01/04 02:08:57;;;;;;;42.43;30.70;;;3.30;99.90;;;;;;4950581;28;20457;-86
2021/01/04 02:11:33;;;;;;;37.73;28.57;;;3.30;99.90;;;;;;4954982;28;20494;-86
2021/01/04 02:14:08;;;;;;;40.80;30.93;;;3.30;99.90;;;;;;4955164;29;20494;-86
2021/01/04 02:16:40;;;;;;;40.57;29.53;;;3.30;99.90;;;;;;4955140;28;20516;-87
2021/01/04 02:19:32;;;;;;;46.90;30.50;;;3.30;99.90;;;;;;4955210;28;20464;-87
2021/01/04 02:22:44;;;;;;;46.33;31.60;;;3.30;99.90;;;;;;4955115;28;20504;-87
2021/01/04 02:25:12;;;;;;;39.03;29.70;;;3.30;99.90;;;;;;4954913;28;20488;-86
2021/01/04 02:27:44;;;;;;;40.90;28.97;;;3.30;99.90;;;;;;4954785;28;20447;-86
2021/01/04 02:30:12;;;;;;;38.60;29.93;;;3.30;99.90;;;;;;4955050;28;20457;-87
2021/01/04 02:32:39;;;;;;;42.43;30.70;;;3.30;99.90;;;;;;4954357;28;20471;-87
2021/01/04 02:35:06;;;;;;;44.20;30.97;;;3.30;99.90;;;;;;4954567;28;20930;-87
2021/01/04 02:37:33;;;;;;;45.70;31.57;;;3.20;99.90;;;;;;4954511;28;20460;-86
2021/01/04 02:40:01;;;;;;;43.33;31.50;;;3.20;99.90;;;;;;4954925;28;20478;-87
2021/01/04 02:42:33;;;;;;;45.37;31.77;;;3.20;99.90;;;;;;4954038;28;21076;-86
2021/01/04 02:45:05;;;;;;;44.80;30.80;;;3.20;99.90;;;;;;4954120;28;20491;-87
2021/01/04 02:48:15;;;;;;;44.00;30.43;;;3.30;99.90;;;;;;4954615;28;20457;-86
2021/01/04 02:50:51;;;;;;;42.90;32.23;;;3.30;99.90;;;;;;4954431;28;21808;-87
2021/01/04 02:53:34;;;;;;;41.80;30.63;;;3.30;99.90;;;;;;4954459;28;20476;-87
2021/01/04 02:56:14;;;;;;;42.27;29.73;;;3.30;99.90;;;;;;4954346;28;20453;-86
2021/01/04 02:58:52;;;;;;;42.03;31.03;;;3.30;99.90;;;;;;4952779;28;20540;-86
2021/01/04 03:01:24;;;;;;;43.23;30.97;;;3.30;99.90;;;;;;4954349;29;20992;-86
2021/01/04 03:03:50;;;;;;;41.03;29.40;;;3.30;99.90;;;;;;4954077;28;20547;-86
2021/01/04 03:06:23;;;;;;;41.77;30.90;;;3.30;99.90;;;;;;4954052;28;20484;-85
2021/01/04 03:08:50;;;;;;;44.00;30.60;;;3.30;99.90;;;;;;4954502;29;20491;-86
2021/01/04 03:11:17;;;;;;;40.70;31.13;;;3.30;99.90;;;;;;4953959;28;20473;-86
2021/01/04 03:13:56;;;;;;;41.23;29.90;;;3.30;99.90;;;;;;4953849;29;20519;-86
2021/01/04 03:16:29;;;;;;;44.90;32.87;;;3.40;99.90;;;;;;4953661;28;20464;-85
2021/01/04 03:19:02;;;;;;;41.53;30.17;;;3.30;99.90;;;;;;4954048;28;20476;-85
2021/01/04 03:21:29;;;;;;;44.90;30.67;;;3.30;99.90;;;;;;4954031;29;20456;-85
2021/01/04 03:23:57;;;;;;;47.17;31.40;;;3.20;99.90;;;;;;4953576;29;21013;-86
2021/01/04 03:26:26;;;;;;;46.10;30.77;;;3.20;99.90;;;;;;4953507;28;20480;-86
2021/01/04 03:28:53;;;;;;;44.73;33.00;;;3.10;99.90;;;;;;4953847;29;20486;-85
2021/01/04 03:31:19;;;;;;;45.07;31.13;;;3.10;99.90;;;;;;4953964;28;20450;-86
2021/01/04 03:33:46;;;;;;;44.47;31.47;;;3.10;99.90;;;;;;4953996;28;20507;-86
2021/01/04 03:36:13;;;;;;;46.77;32.87;;;3.20;99.90;;;;;;4953714;28;20452;-85
2021/01/04 03:38:39;;;;;;;47.63;33.33;;;3.10;99.90;;;;;;4953647;28;20459;-86
2021/01/04 03:41:06;;;;;;;43.47;31.37;;;3.20;99.90;;;;;;4953912;28;20459;-86
2021/01/04 03:43:32;;;;;;;50.10;33.80;;;3.20;99.90;;;;;;4953216;28;20473;-86
2021/01/04 03:45:59;;;;;;;46.07;32.53;;;3.20;99.90;;;;;;4953511;28;20495;-86
2021/01/04 03:48:25;;;;;;;48.00;31.50;;;3.20;99.90;;;;;;4953517;28;20584;-86
2021/01/04 03:50:52;;;;;;;46.10;33.67;;;3.30;99.90;;;;;;4953478;29;20518;-85
2021/01/04 03:53:18;;;;;;;43.83;31.03;;;3.30;99.90;;;;;;4953663;28;20460;-86
2021/01/04 03:55:45;;;;;;;45.87;32.70;;;3.20;99.90;;;;;;4953317;28;20448;-86
2021/01/04 03:58:12;;;;;;;45.80;31.57;;;3.30;99.90;;;;;;4953337;28;20550;-86
2021/01/04 04:00:39;;;;;;;41.70;30.77;;;3.30;99.90;;;;;;4953659;29;20903;-86
2021/01/04 04:03:07;;;;;;;43.27;30.73;;;3.30;99.90;;;;;;4953560;28;21042;-85
2021/01/04 04:05:33;;;;;;;47.17;33.10;;;3.30;99.90;;;;;;4952521;28;20484;-85
2021/01/04 04:08:01;;;;;;;40.20;29.93;;;3.30;99.90;;;;;;4953445;29;20961;-85
2021/01/04 04:10:27;;;;;;;41.50;30.80;;;3.30;99.90;;;;;;4953411;28;20832;-86
2021/01/04 04:12:53;;;;;;;39.70;31.57;;;3.30;99.90;;;;;;4952949;28;20456;-85
2021/01/04 04:15:21;;;;;;;40.33;29.97;;;3.30;99.90;;;;;;4953168;28;20441;-85
2021/01/04 04:17:47;;;;;;;41.70;30.90;;;3.30;99.90;;;;;;4952988;28;21035;-86
2021/01/04 04:20:18;;;;;;;38.17;29.30;;;3.30;99.90;;;;;;4952994;28;20456;-86
2021/01/04 04:22:47;;;;;;;41.13;29.10;;;3.30;99.90;;;;;;4953116;28;20471;-86
2021/01/04 04:25:15;;;;;;;42.67;30.23;;;3.20;99.90;;;;;;4953146;29;20484;-86
2021/01/04 04:27:42;;;;;;;40.47;30.20;;;3.20;99.90;;;;;;4952922;28;20543;-86
2021/01/04 04:30:10;;;;;;;40.67;30.33;;;3.20;99.90;;;;;;4953277;28;20439;-85
2021/01/04 04:32:37;;;;;;;41.50;32.10;;;3.20;99.90;;;;;;4952350;28;20519;-85
2021/01/04 04:35:03;;;;;;;40.73;30.07;;;3.20;99.90;;;;;;4952901;28;20457;-86
2021/01/04 04:37:30;;;;;;;44.70;31.93;;;3.20;99.90;;;;;;4952829;28;20472;-85
2021/01/04 04:39:56;;;;;;;41.10;31.47;;;3.30;99.90;;;;;;4953114;28;20511;-86
2021/01/04 04:42:22;;;;;;;39.60;30.07;;;3.30;99.90;;;;;;4952892;28;20473;-87
2021/01/04 04:44:58;;;;;;;44.00;31.70;;;3.30;99.90;;;;;;4952727;28;20535;-86
2021/01/04 04:47:50;;;;;;;45.97;31.70;;;3.30;99.90;;;;;;4953086;28;20463;-86
2021/01/04 04:50:57;;;;;;;39.80;28.60;;;3.30;99.90;;;;;;4952850;28;20458;-86
2021/01/04 04:54:05;;;;;;;40.90;29.20;;;3.30;99.90;;;;;;4912575;29;20473;-86
2021/01/04 04:57:30;;;;;;;40.60;28.90;;;3.30;99.90;;;;;;4948536;28;20459;-86
2021/01/04 05:00:10;;;;;;;47.80;32.73;;;3.30;99.90;;;;;;4956202;28;20439;-86
2021/01/04 05:02:48;;;;;;;43.30;31.90;;;3.20;99.90;;;;;;4956334;28;20579;-86
2021/01/04 05:05:22;;;;;;;47.40;33.00;;;3.30;99.90;;;;;;4955692;28;20479;-86
2021/01/04 05:07:54;;;;;;;44.03;30.07;;;3.30;99.90;;;;;;4955226;28;20448;-86
2021/01/04 05:10:24;;;;;;;40.30;31.70;;;3.30;99.90;;;;;;4956104;28;20464;-86
2021/01/04 05:13:01;;;;;;;45.23;32.47;;;3.30;99.90;;;;;;4956005;29;20472;-86
2021/01/04 05:15:40;;;;;;;45.60;31.03;;;3.30;99.90;;;;;;4956122;28;20449;-86
2021/01/04 05:18:49;;;;;;;42.83;30.17;;;3.30;99.90;;;;;;4956075;28;20451;-86
2021/01/04 05:22:06;;;;;;;40.50;31.33;;;3.30;99.90;;;;;;4955925;28;20452;-86
2021/01/04 05:24:59;;;;;;;46.23;32.60;;;3.30;99.90;;;;;;4955035;28;20487;-86
2021/01/04 05:27:56;;;;;;;39.83;30.17;;;3.30;99.90;;;;;;4955917;28;20862;-85
2021/01/04 05:30:32;;;;;;;45.93;30.03;;;3.30;99.90;;;;;;4955866;28;20452;-86
2021/01/04 05:33:24;;;;;;;49.80;32.40;;;3.30;99.90;;;;;;4955952;28;20471;-86
2021/01/04 05:36:07;;;;;;;43.07;30.40;;;3.30;99.90;;;;;;4955882;28;20519;-85
2021/01/04 05:38:39;;;;;;;46.57;32.20;;;3.30;99.90;;;;;;4936705;29;20575;-86
2021/01/04 05:41:24;;;;;;;42.43;31.30;;;3.30;99.90;;;;;;4936679;29;20955;-85
2021/01/04 05:44:03;;;;;;;47.90;32.70;;;3.30;99.90;;;;;;4936488;29;20820;-86
2021/01/04 05:46:36;;;;;;;43.70;31.60;;;3.30;99.90;;;;;;4936087;29;20496;-86
2021/01/04 05:49:12;;;;;;;47.53;32.30;;;3.30;99.90;;;;;;4936647;29;20798;-86
2021/01/04 05:51:40;;;;;;;44.67;31.60;;;3.30;99.90;;;;;;4936377;29;20519;-86
2021/01/04 05:54:07;;;;;;;44.10;32.30;;;3.30;99.90;;;;;;4949644;29;20451;-86
2021/01/04 05:56:34;;;;;;;42.57;30.60;;;3.20;99.90;;;;;;4954786;28;20515;-86
2021/01/04 05:59:09;;;;;;;46.20;33.40;;;3.20;99.90;;;;;;4955567;28;20482;-86
2021/01/04 06:01:37;;;;;;;46.00;31.10;;;3.20;99.90;;;;;;4955315;28;20443;-86
2021/01/04 06:04:06;;;;;;;44.90;32.10;;;3.30;99.90;;;;;;4955654;28;20807;-85
2021/01/04 06:06:45;;;;;;;42.40;31.80;;;3.30;99.90;;;;;;4954407;28;20488;-86
2021/01/04 06:09:15;;;;;;;45.57;30.87;;;3.30;99.90;;;;;;4955073;28;20543;-85
2021/01/04 06:11:51;;;;;;;44.67;32.80;;;3.30;99.90;;;;;;4954613;28;20970;-85
2021/01/04 06:14:19;;;;;;;44.03;29.93;;;3.30;99.90;;;;;;4955343;28;20523;-85
2021/01/04 06:16:46;;;;;;;42.40;31.30;;;3.30;99.90;;;;;;4954669;28;20463;-86
2021/01/04 06:19:16;;;;;;;46.63;31.87;;;3.30;99.90;;;;;;4962651;28;20448;-84
2021/01/04 06:21:51;;;;;;;43.37;32.60;;;3.30;99.90;;;;;;4964223;28;20460;-84
2021/01/04 06:24:37;;;;;;;41.40;31.37;;;3.30;99.90;;;;;;4962933;28;20459;-85
2021/01/04 06:27:10;;;;;;;48.60;32.67;;;3.30;99.90;;;;;;4964795;28;20475;-85
2021/01/04 06:29:41;;;;;;;45.57;32.03;;;3.30;99.90;;;;;;4964429;28;21096;-85
2021/01/04 06:32:21;;;;;;;44.27;32.47;;;3.30;99.90;;;;;;4964014;28;20481;-85
2021/01/04 06:34:54;;;;;;;47.00;32.87;;;3.30;99.90;;;;;;4963640;28;20436;-86
2021/01/04 06:37:26;;;;;;;41.20;30.60;;;3.30;99.90;;;;;;4963955;28;20454;-85
2021/01/04 06:40:02;;;;;;;50.57;35.70;;;3.30;99.90;;;;;;4961487;28;20455;-85
2021/01/04 06:42:35;;;;;;;48.30;33.27;;;3.30;99.90;;;;;;4963749;28;20552;-85
2021/01/04 06:45:15;;;;;;;53.03;32.80;;;3.30;99.90;;;;;;4963384;28;21024;-85
2021/01/04 06:47:49;;;;;;;45.30;31.10;;;3.30;99.90;;;;;;4962837;28;20506;-85
2021/01/04 06:50:24;;;;;;;50.23;33.40;;;3.30;99.90;;;;;;4964040;28;20979;-85
2021/01/04 06:53:29;;;;;;;49.83;33.53;;;3.30;99.90;;;;;;4963733;28;20466;-85
2021/01/04 06:56:33;;;;;;;48.33;32.77;;;3.30;99.90;;;;;;4961634;28;20950;-85
2021/01/04 06:59:17;;;;;;;48.13;31.27;;;3.30;99.90;;;;;;4962457;28;20454;-85
2021/01/04 07:02:07;;;;;;;42.03;30.07;;;3.20;99.90;;;;;;4962506;28;20451;-85
2021/01/04 07:05:02;;;;;;;46.87;33.23;;;3.20;99.90;;;;;;4962873;28;20455;-86
2021/01/04 07:07:42;;;;;;;41.37;30.63;;;3.20;99.90;;;;;;4962206;28;20807;-86
2021/01/04 07:10:38;;;;;;;44.50;32.07;;;3.20;99.90;;;;;;4961270;28;20437;-86
2021/01/04 07:13:21;;;;;;;57.23;35.00;;;3.20;99.90;;;;;;4963173;28;20463;-86
2021/01/04 07:16:03;;;;;;;48.00;32.70;;;3.30;99.90;;;;;;4962866;28;20458;-86
2021/01/04 07:18:44;;;;;;;43.00;31.07;;;3.30;99.90;;;;;;4961761;28;20439;-86
2021/01/04 07:21:28;;;;;;;45.20;30.80;;;3.30;99.90;;;;;;4961491;28;20444;-86
2021/01/04 07:24:15;;;;;;;45.63;32.50;;;3.20;99.90;;;;;;4961364;28;20464;-86
2021/01/04 07:26:51;;;;;;;46.90;29.40;;;3.20;99.90;;;;;;4961087;28;20487;-85
2021/01/04 07:29:33;;;;;;;47.37;32.90;;;3.20;99.90;;;;;;4962436;28;20459;-85
2021/01/04 07:32:03;;;;;;;44.17;30.90;;;3.20;99.90;;;;;;4962349;28;20476;-86
2021/01/04 07:34:36;;;;;;;45.77;29.87;;;3.30;99.90;;;;;;4963082;28;20440;-86
2021/01/04 07:37:22;;;;;;;41.07;31.17;;;3.20;99.90;;;;;;4963092;28;20897;-85
2021/01/04 07:39:54;;;;;;;42.73;28.90;;;3.30;99.90;;;;;;4962440;28;20451;-85
2021/01/04 07:42:44;;;;;;;40.87;29.10;;;3.30;99.90;;;;;;4962911;28;20529;-86
2021/01/04 07:45:32;;;;;;;45.00;31.13;;;3.30;99.90;;;;;;4961393;28;20544;-85
2021/01/04 07:48:35;;;;;;;43.60;29.67;;;3.30;99.90;;;;;;4963118;28;20454;-85
2021/01/04 07:51:29;;;;;;;45.27;29.87;;;3.30;99.90;;;;;;4962992;28;20537;-86
2021/01/04 07:54:34;;;;;;;44.43;29.60;;;3.30;99.90;;;;;;4961184;28;20535;-86
2021/01/04 07:57:18;;;;;;;42.00;30.77;;;3.30;99.90;;;;;;4962318;28;20910;-85
2021/01/04 08:00:03;;;;;;;38.97;28.83;;;3.40;99.90;;;;;;4962281;28;20570;-85
2021/01/04 08:03:18;;;;;;;41.37;29.30;;;3.40;99.90;;;;;;4961622;28;20452;-85
2021/01/04 08:06:34;;;;;;;43.47;30.60;;;3.40;99.90;;;;;;4961696;28;20506;-86
2021/01/04 08:09:06;;;;;;;41.63;28.83;;;3.40;99.90;;;;;;4961640;28;20805;-86
2021/01/04 08:12:16;;;;;;;43.10;30.87;;;3.50;99.90;;;;;;4961263;28;20968;-86
2021/01/04 08:15:15;;;;;;;47.47;30.83;;;3.50;99.90;;;;;;4961172;28;20455;-86
2021/01/04 08:17:50;;;;;;;41.57;29.40;;;3.50;99.90;;;;;;4958887;28;20953;-86
2021/01/04 08:20:19;;;;;;;45.77;30.37;;;3.50;99.90;;;;;;4965092;28;20455;-86
2021/01/04 08:23:12;;;;;;;42.37;28.60;;;3.50;99.90;;;;;;4961728;28;20470;-85
2021/01/04 08:25:49;;;;;;;43.77;29.00;;;3.60;99.90;;;;;;4958647;28;20479;-87
2021/01/04 08:28:24;;;;;;;44.20;29.93;;;3.50;99.90;;;;;;4960247;28;20452;-86
2021/01/04 08:31:03;;;;;;;46.83;32.17;;;3.60;99.90;;;;;;4955966;28;20459;-86
2021/01/04 08:33:44;;;;;;;44.37;29.63;;;3.60;99.90;;;;;;4956794;28;20502;-86
2021/01/04 08:36:33;;;;;;;37.17;28.00;;;3.70;99.90;;;;;;4956878;28;20456;-86
2021/01/04 08:39:10;;;;;;;46.63;30.10;;;3.70;99.90;;;;;;4955210;28;20541;-86
2021/01/04 08:41:37;;;;;;;42.10;29.40;;;3.70;99.90;;;;;;4956557;28;20517;-86
2021/01/04 08:44:13;;;;;;;43.73;30.00;;;3.70;99.90;;;;;;4956205;29;20451;-86
2021/01/04 08:46:39;;;;;;;44.03;31.60;;;3.80;99.90;;;;;;4956437;28;20498;-86
2021/01/04 08:49:21;;;;;;;43.63;30.37;;;3.80;99.90;;;;;;4957393;28;20459;-86
2021/01/04 08:51:50;;;;;;;48.10;31.00;;;3.80;99.90;;;;;;4956736;28;20445;-86
2021/01/04 08:54:27;;;;;;;41.73;32.30;;;3.80;99.90;;;;;;4956403;28;20833;-87
2021/01/04 08:57:07;;;;;;;49.77;38.23;;;3.80;99.90;;;;;;4956363;28;20965;-86
2021/01/04 08:59:33;;;;;;;42.03;31.20;;;3.90;99.90;;;;;;4956055;28;20448;-86
2021/01/04 09:02:06;;;;;;;46.33;32.23;;;3.90;99.90;;;;;;4955758;28;20498;-86
2021/01/04 09:04:35;;;;;;;43.20;31.13;;;3.90;99.90;;;;;;4955807;28;20456;-85
2021/01/04 09:07:11;;;;;;;38.73;29.37;;;3.90;99.90;;;;;;4956134;28;20543;-85
2021/01/04 09:09:43;;;;;;;43.40;30.80;;;4.00;99.90;;;;;;4955888;28;20463;-85
2021/01/04 09:12:20;;;;;;;50.23;28.93;;;4.00;99.90;;;;;;4956056;28;20472;-86
2021/01/04 09:14:52;;;;;;;52.13;38.77;;;4.00;99.90;;;;;;4955620;28;20564;-85
2021/01/04 09:17:27;;;;;;;42.10;29.50;;;4.10;99.90;;;;;;4955642;28;20980;-86
2021/01/04 09:20:06;;;;;;;42.07;31.30;;;4.00;99.90;;;;;;4955984;28;20444;-86
2021/01/04 09:22:33;;;;;;;42.10;31.10;;;4.10;99.90;;;;;;4954857;28;20483;-85
2021/01/04 09:25:00;;;;;;;42.23;30.20;;;4.10;99.90;;;;;;4955388;28;20539;-86
2021/01/04 09:27:30;;;;;;;42.83;30.17;;;4.10;99.90;;;;;;4955685;28;21023;-86
2021/01/04 09:29:59;;;;;;;39.13;28.33;;;4.20;99.90;;;;;;4955756;28;20496;-86
2021/01/04 09:32:37;;;;;;;39.00;28.70;;;4.20;99.90;;;;;;4955491;28;20480;-85
2021/01/04 09:35:06;;;;;;;34.90;25.63;;;4.10;99.90;;;;;;4954534;28;20829;-85
2021/01/04 09:37:39;;;;;;;37.47;27.67;;;4.10;99.90;;;;;;4955625;28;20480;-85
2021/01/04 09:40:09;;;;;;;37.20;26.80;;;4.10;99.90;;;;;;4955136;29;20480;-86
2021/01/04 09:42:36;;;;;;;34.17;26.70;;;4.10;99.90;;;;;;4954470;28;20476;-86
2021/01/04 09:45:10;;;;;;;37.73;27.20;;;4.10;99.90;;;;;;4955063;28;20527;-86
2021/01/04 09:47:42;;;;;;;35.40;26.63;;;4.20;99.90;;;;;;4955243;28;20519;-86
2021/01/04 09:50:16;;;;;;;33.67;24.37;;;4.20;99.90;;;;;;4954657;28;20449;-86
2021/01/04 09:52:45;;;;;;;41.83;27.03;;;4.20;99.90;;;;;;4954485;28;20479;-86
2021/01/04 09:55:14;;;;;;;35.70;26.50;;;4.30;99.90;;;;;;4954926;28;20445;-86
2021/01/04 09:57:43;;;;;;;35.43;26.23;;;4.20;99.90;;;;;;4955085;28;20946;-86
2021/01/04 10:00:17;;;;;;;32.90;26.47;;;4.20;99.90;;;;;;4955052;29;20453;-79
2021/01/04 10:02:43;;;;;;;33.37;25.17;;;4.30;99.90;;;;;;4954978;28;20479;-80
2021/01/04 10:05:12;;;;;;;36.70;25.57;;;4.30;99.90;;;;;;4954879;28;20473;-81
2021/01/04 10:07:40;;;;;;;37.90;27.17;;;4.40;99.90;;;;;;4954497;28;20461;-81
2021/01/04 10:10:16;;;;;;;30.30;23.70;;;4.40;99.90;;;;;;4955141;28;20441;-86
2021/01/04 10:12:43;;;;;;;36.37;26.00;;;4.40;99.90;;;;;;4954997;28;20535;-88
2021/01/04 10:15:18;;;;;;;34.07;24.73;;;4.40;99.90;;;;;;4954694;28;20476;-87
2021/01/04 10:17:48;;;;;;;33.37;24.77;;;4.50;99.90;;;;;;4954644;28;20471;-88
2021/01/04 10:20:26;;;;;;;35.07;26.07;;;4.60;99.90;;;;;;4955094;28;20819;-88
2021/01/04 10:22:55;;;;;;;35.70;26.33;;;4.60;99.90;;;;;;4954928;28;20555;-86
2021/01/04 10:25:33;;;;;;;36.03;26.87;;;4.60;99.90;;;;;;4954430;28;20491;-86
2021/01/04 10:28:01;;;;;;;32.50;25.47;;;4.70;99.90;;;;;;4954972;28;20847;-87
2021/01/04 10:30:29;;;;;;;34.00;25.90;;;4.70;99.90;;;;;;4954844;28;20453;-87
2021/01/04 10:33:04;;;;;;;44.63;26.20;;;4.70;99.90;;;;;;4954672;28;20480;-88
2021/01/04 10:35:30;;;;;;;36.90;26.30;;;4.70;99.90;;;;;;4954553;28;20445;-87
2021/01/04 10:38:05;;;;;;;31.07;24.57;;;4.60;99.90;;;;;;4954661;28;20453;-87
2021/01/04 10:40:42;;;;;;;35.77;25.43;;;4.50;99.90;;;;;;4954037;28;20466;-87
2021/01/04 10:43:09;;;;;;;32.00;24.53;;;4.50;99.90;;;;;;4954467;28;20829;-88
2021/01/04 10:45:38;;;;;;;34.30;26.57;;;4.50;99.90;;;;;;4953972;28;20492;-88
2021/01/04 10:48:12;;;;;;;32.30;25.97;;;4.50;99.90;;;;;;4954338;28;20459;-87
2021/01/04 10:50:40;;;;;;;34.23;25.37;;;4.60;99.90;;;;;;4954383;28;20509;-86
2021/01/04 10:53:09;;;;;;;32.87;23.70;;;4.60;99.90;;;;;;4954322;28;21016;-87
2021/01/04 10:55:38;;;;;;;32.87;25.70;;;4.70;99.90;;;;;;4953695;28;20449;-88
2021/01/04 10:58:25;;;;;;;32.77;24.20;;;4.70;99.90;;;;;;4954487;28;20820;-88
2021/01/04 11:00:57;;;;;;;29.60;22.20;;;4.70;99.90;;;;;;4954786;29;20527;-86
2021/01/04 11:03:24;;;;;;;32.57;23.97;;;4.70;99.90;;;;;;4959768;28;20479;-88
2021/01/04 11:05:51;;;;;;;34.30;25.63;;;4.70;99.90;;;;;;4964508;28;20481;-88
2021/01/04 11:08:27;;;;;;;31.23;24.07;;;4.70;99.90;;;;;;4954014;28;20507;-88
2021/01/04 11:10:57;;;;;;;33.23;24.23;;;4.60;99.90;;;;;;4954083;28;20456;-87
2021/01/04 11:13:30;;;;;;;29.13;23.00;;;4.60;99.90;;;;;;4953711;28;20491;-87
2021/01/04 11:16:10;;;;;;;29.80;23.20;;;4.60;99.90;;;;;;4953257;28;20445;-88
2021/01/04 11:18:51;;;;;;;33.27;21.83;;;4.50;99.90;;;;;;4953930;28;20451;-88
2021/01/04 11:21:19;;;;;;;32.83;24.00;;;4.50;99.90;;;;;;4953743;28;20448;-88
2021/01/04 11:23:46;;;;;;;32.87;22.53;;;4.50;99.90;;;;;;4953233;28;20535;-88
2021/01/04 11:26:13;;;;;;;35.17;24.70;;;4.60;99.90;;;;;;4953330;28;20493;-88
2021/01/04 11:28:40;;;;;;;31.33;23.23;;;4.60;99.90;;;;;;4953279;28;20452;-88
2021/01/04 11:31:06;;;;;;;30.00;22.93;;;4.50;99.90;;;;;;4953335;28;20441;-88
2021/01/04 11:33:32;;;;;;;33.87;25.37;;;4.60;99.90;;;;;;4953906;28;20464;-89
2021/01/04 11:35:59;;;;;;;33.97;23.60;;;4.60;99.90;;;;;;4953165;28;20514;-87
2021/01/04 11:38:27;;;;;;;28.67;21.43;;;4.40;99.90;;;;;;4952750;28;20540;-88
2021/01/04 11:40:54;;;;;;;27.80;21.60;;;4.20;99.90;;;;;;4953957;28;20457;-88
2021/01/04 11:43:20;;;;;;;29.90;22.50;;;4.20;99.90;;;;;;4953426;28;20480;-88
2021/01/04 11:45:47;;;;;;;29.03;23.40;;;4.00;99.90;;;;;;4953070;28;20483;-88
2021/01/04 11:48:13;;;;;;;27.77;21.27;;;4.00;99.90;;;;;;4953517;28;20464;-87
2021/01/04 11:50:40;;;;;;;31.33;24.20;;;4.00;99.90;;;;;;4953311;28;20867;-87
2021/01/04 11:53:06;;;;;;;30.97;22.10;;;4.10;99.90;;;;;;4953457;28;20981;-87
2021/01/04 11:55:32;;;;;;;30.00;22.47;;;4.10;99.90;;;;;;4953026;28;20464;-88
2021/01/04 11:57:59;;;;;;;27.87;22.30;;;4.10;99.90;;;;;;4952925;28;20504;-88
2021/01/04 12:00:26;;;;;;;27.00;19.60;;;4.10;99.90;;;;;;4952911;28;20453;-88
2021/01/04 12:02:53;;;;;;;28.77;22.10;;;3.90;99.90;;;;;;4953242;28;20473;-88
2021/01/04 12:05:19;;;;;;;26.77;19.60;;;3.90;99.90;;;;;;4956441;28;20493;-87
2021/01/04 12:07:46;;;;;;;31.43;21.07;;;3.80;99.90;;;;;;4959181;28;20444;-87
2021/01/04 12:10:13;;;;;;;28.10;20.27;;;3.70;99.90;;;;;;4959375;29;20470;-87
2021/01/04 12:12:39;;;;;;;28.60;22.30;;;3.70;99.90;;;;;;4958781;28;20473;-87
2021/01/04 12:15:07;;;;;;;28.87;21.17;;;3.80;99.90;;;;;;4959133;28;20457;-87
2021/01/04 12:17:34;;;;;;;31.33;21.37;;;3.70;99.90;;;;;;4959361;28;20448;-87
2021/01/04 12:20:01;;;;;;;29.23;23.00;;;3.70;99.90;;;;;;4959624;28;20456;-88
2021/01/04 12:22:27;;;;;;;32.20;22.53;;;3.80;99.90;;;;;;4959531;28;20496;-87
2021/01/04 12:24:53;;;;;;;33.33;23.50;;;3.80;99.90;;;;;;4959068;28;20539;-87
2021/01/04 12:27:19;;;;;;;28.87;20.87;;;3.80;99.90;;;;;;4959167;28;21212;-87
2021/01/04 12:29:46;;;;;;;30.37;22.70;;;3.90;99.90;;;;;;4959191;28;20793;-87
2021/01/04 12:32:14;;;;;;;32.53;21.33;;;3.80;99.90;;;;;;4959182;28;20475;-87
2021/01/04 12:34:41;;;;;;;28.17;21.57;;;3.70;99.90;;;;;;4959024;28;20460;-87
2021/01/04 12:37:09;;;;;;;30.80;22.73;;;3.60;99.90;;;;;;4959397;28;20515;-87
2021/01/04 12:39:35;;;;;;;31.33;23.67;;;3.70;99.90;;;;;;4959116;28;20487;-86
2021/01/04 12:42:01;;;;;;;28.80;22.30;;;3.70;99.90;;;;;;4959055;28;20502;-89
2021/01/04 12:44:28;;;;;;;30.70;20.97;;;3.70;99.90;;;;;;4958896;28;20462;-87
2021/01/04 12:46:54;;;;;;;25.10;18.80;;;3.70;99.90;;;;;;4959243;28;20488;-86
2021/01/04 12:49:23;;;;;;;31.03;22.20;;;3.80;99.90;;;;;;4959493;28;20879;-88
2021/01/04 12:51:51;;;;;;;26.40;20.17;;;3.60;99.90;;;;;;4959137;28;20452;-88
2021/01/04 12:54:20;;;;;;;28.40;19.70;;;3.60;99.90;;;;;;4959496;28;20515;-86
2021/01/04 12:56:47;;;;;;;29.40;20.83;;;3.60;99.90;;;;;;4958829;28;20456;-87
2021/01/04 12:59:15;;;;;;;30.23;20.97;;;3.70;99.90;;;;;;4958600;28;20456;-88
2021/01/04 13:01:42;;;;;;;28.70;20.03;;;3.60;99.90;;;;;;4958905;28;20457;-88
2021/01/04 13:04:09;;;;;;;27.63;21.30;;;3.70;99.90;;;;;;4959256;28;20460;-87
2021/01/04 13:06:35;;;;;;;25.17;18.83;;;3.70;99.90;;;;;;4958735;28;20487;-88
2021/01/04 13:09:02;;;;;;;27.30;20.90;;;3.80;99.90;;;;;;4959269;28;20467;-88
2021/01/04 13:11:29;;;;;;;26.07;19.00;;;3.70;99.90;;;;;;4958674;28;20459;-86
2021/01/04 13:13:55;;;;;;;26.63;19.43;;;3.80;99.90;;;;;;4958944;28;20492;-86
2021/01/04 13:16:21;;;;;;;23.80;18.80;;;3.80;99.90;;;;;;4956155;28;20474;-87
2021/01/04 13:18:47;;;;;;;20.17;16.13;;;3.80;99.90;;;;;;4956098;29;20482;-89
2021/01/04 13:21:18;;;;;;;21.30;16.70;;;3.80;99.90;;;;;;4955908;29;20463;-88
2021/01/04 13:23:45;;;;;;;22.97;16.90;;;3.90;99.90;;;;;;4969231;28;20476;-88